This is the latest recevied weather packets stored in our database for station/object PD0HRY-12. If no packets are shown the sender has not sent any weather packets the latest 10 day(s).
| Time | Temp. | Humidity | Pressure | Rain* | Wind** | Luminosity | Snow |
|---|---|---|---|---|---|---|---|
| 1777465804 | 17.78° C | 28% | 1019 hPa | - | - | - | - |
| 1777464002 | 16.67° C | 30% | 1019 hPa | - | - | - | - |
| 1777462201 | 16.67° C | 32% | 1019 hPa | - | - | - | - |
| 1777460404 | 16.11° C | 33% | 1019 hPa | - | - | - | - |
| 1777458602 | 15.56° C | 35% | 1019 hPa | - | - | - | - |
| 1777456801 | 15.56° C | 36% | 1020 hPa | - | - | - | - |
| 1777455004 | 14.44° C | 39% | 1020 hPa | - | - | - | - |
| 1777453202 | 13.33° C | 40% | 1020 hPa | - | - | - | - |
| 1777451401 | 12.78° C | 42% | 1020 hPa | - | - | - | - |
| 1777449604 | 11.67° C | 45% | 1020 hPa | - | - | - | - |
| 1777447802 | 11.11° C | 47% | 1020 hPa | - | - | - | - |
| 1777446001 | 10.56° C | 48% | 1020 hPa | - | - | - | - |
| 1777444204 | 9.44° C | 48% | 1019 hPa | - | - | - | - |
| 1777442403 | 9.44° C | 48% | 1019 hPa | - | - | - | - |
| 1777440601 | 8.33° C | 50% | 1019 hPa | - | - | - | - |
| 1777438804 | 8.33° C | 50% | 1019 hPa | - | - | - | - |
| 1777437002 | 7.78° C | 51% | 1019 hPa | - | - | - | - |
| 1777435201 | 8.33° C | 50% | 1018 hPa | - | - | - | - |
| 1777433404 | 8.33° C | 50% | 1018 hPa | - | - | - | - |
| 1777431603 | 8.89° C | 49% | 1018 hPa | - | - | - | - |
| 1777429801 | 9.44° C | 48% | 1019 hPa | - | - | - | - |
| 1777428005 | 10° C | 46% | 1018 hPa | - | - | - | - |
| 1777426203 | 10° C | 44% | 1018 hPa | - | - | - | - |
| 1777424401 | 10.56° C | 43% | 1018 hPa | - | - | - | - |
| 1777422605 | 10.56° C | 44% | 1018 hPa | - | - | - | - |
* Rain since midnight (hover to see other rain measurements)
** Current wind speed in m/s (hover to see current wind gust speed)